sensor_id;sensor_type;location;lat;lon;timestamp;P1;durP1;ratioP1;P2;durP2;ratioP2
16735;SDS011;17990;49.548;9.730;2023-07-24T00:02:25;6.67;;;3.30;;
16735;SDS011;17990;49.548;9.730;2023-07-24T00:04:52;6.57;;;3.30;;
16735;SDS011;17990;49.548;9.730;2023-07-24T00:07:18;4.63;;;3.27;;
16735;SDS011;17990;49.548;9.730;2023-07-24T00:09:45;5.23;;;3.50;;
16735;SDS011;17990;49.548;9.730;2023-07-24T00:12:12;7.07;;;3.63;;
16735;SDS011;17990;49.548;9.730;2023-07-24T00:14:39;4.73;;;3.87;;
16735;SDS011;17990;49.548;9.730;2023-07-24T00:17:06;4.47;;;3.80;;
16735;SDS011;17990;49.548;9.730;2023-07-24T00:19:34;7.53;;;3.70;;
16735;SDS011;17990;49.548;9.730;2023-07-24T00:22:01;5.33;;;4.10;;
16735;SDS011;17990;49.548;9.730;2023-07-24T00:24:29;5.63;;;4.50;;
16735;SDS011;17990;49.548;9.730;2023-07-24T00:26:57;7.63;;;4.40;;
16735;SDS011;17990;49.548;9.730;2023-07-24T00:29:24;5.43;;;4.03;;
16735;SDS011;17990;49.548;9.730;2023-07-24T00:31:51;5.07;;;3.67;;
16735;SDS011;17990;49.548;9.730;2023-07-24T00:34:18;6.87;;;4.33;;
16735;SDS011;17990;49.548;9.730;2023-07-24T00:36:46;6.83;;;4.03;;
16735;SDS011;17990;49.548;9.730;2023-07-24T00:39:14;5.47;;;4.20;;
16735;SDS011;17990;49.548;9.730;2023-07-24T00:41:41;7.70;;;4.40;;
16735;SDS011;17990;49.548;9.730;2023-07-24T00:44:08;10.93;;;4.40;;
16735;SDS011;17990;49.548;9.730;2023-07-24T00:46:35;9.37;;;4.60;;
16735;SDS011;17990;49.548;9.730;2023-07-24T00:49:02;6.40;;;4.70;;
16735;SDS011;17990;49.548;9.730;2023-07-24T00:51:31;6.23;;;4.50;;
16735;SDS011;17990;49.548;9.730;2023-07-24T00:54:00;6.27;;;4.50;;
16735;SDS011;17990;49.548;9.730;2023-07-24T00:56:28;6.70;;;4.70;;
16735;SDS011;17990;49.548;9.730;2023-07-24T00:58:57;6.33;;;4.60;;
16735;SDS011;17990;49.548;9.730;2023-07-24T01:01:25;9.07;;;4.73;;
16735;SDS011;17990;49.548;9.730;2023-07-24T01:03:53;5.97;;;4.43;;
16735;SDS011;17990;49.548;9.730;2023-07-24T01:06:23;7.33;;;4.70;;
16735;SDS011;17990;49.548;9.730;2023-07-24T01:08:50;7.77;;;4.83;;
16735;SDS011;17990;49.548;9.730;2023-07-24T01:11:19;6.67;;;4.83;;
16735;SDS011;17990;49.548;9.730;2023-07-24T01:13:52;6.17;;;4.57;;
16735;SDS011;17990;49.548;9.730;2023-07-24T01:16:25;9.63;;;5.53;;
16735;SDS011;17990;49.548;9.730;2023-07-24T01:18:59;7.07;;;5.30;;
16735;SDS011;17990;49.548;9.730;2023-07-24T01:21:29;7.27;;;5.17;;
16735;SDS011;17990;49.548;9.730;2023-07-24T01:24:11;7.00;;;5.17;;
16735;SDS011;17990;49.548;9.730;2023-07-24T01:26:51;8.67;;;5.20;;
16735;SDS011;17990;49.548;9.730;2023-07-24T01:29:18;6.47;;;4.90;;
16735;SDS011;17990;49.548;9.730;2023-07-24T01:31:45;10.73;;;7.00;;
16735;SDS011;17990;49.548;9.730;2023-07-24T01:34:12;10.57;;;6.63;;
16735;SDS011;17990;49.548;9.730;2023-07-24T01:36:39;18.77;;;10.03;;
16735;SDS011;17990;49.548;9.730;2023-07-24T01:39:06;11.97;;;7.23;;
16735;SDS011;17990;49.548;9.730;2023-07-24T01:41:33;13.57;;;7.63;;
16735;SDS011;17990;49.548;9.730;2023-07-24T01:44:02;16.00;;;8.17;;
16735;SDS011;17990;49.548;9.730;2023-07-24T01:46:29;11.60;;;6.23;;
16735;SDS011;17990;49.548;9.730;2023-07-24T01:48:55;7.20;;;5.60;;
16735;SDS011;17990;49.548;9.730;2023-07-24T01:51:23;8.67;;;5.70;;
16735;SDS011;17990;49.548;9.730;2023-07-24T01:53:50;7.60;;;5.13;;
16735;SDS011;17990;49.548;9.730;2023-07-24T01:56:17;7.50;;;5.20;;
16735;SDS011;17990;49.548;9.730;2023-07-24T01:58:43;6.70;;;5.50;;
16735;SDS011;17990;49.548;9.730;2023-07-24T02:01:12;6.67;;;5.10;;
16735;SDS011;17990;49.548;9.730;2023-07-24T02:03:39;7.43;;;5.43;;
16735;SDS011;17990;49.548;9.730;2023-07-24T02:06:06;8.37;;;5.40;;
16735;SDS011;17990;49.548;9.730;2023-07-24T02:08:33;7.83;;;5.20;;
16735;SDS011;17990;49.548;9.730;2023-07-24T02:11:00;6.83;;;5.13;;
16735;SDS011;17990;49.548;9.730;2023-07-24T02:13:27;6.97;;;4.70;;
16735;SDS011;17990;49.548;9.730;2023-07-24T02:15:54;6.17;;;4.77;;
16735;SDS011;17990;49.548;9.730;2023-07-24T02:18:22;6.97;;;5.07;;
16735;SDS011;17990;49.548;9.730;2023-07-24T02:20:49;7.13;;;5.23;;
16735;SDS011;17990;49.548;9.730;2023-07-24T02:23:16;7.57;;;5.23;;
16735;SDS011;17990;49.548;9.730;2023-07-24T02:25:43;6.77;;;4.73;;
16735;SDS011;17990;49.548;9.730;2023-07-24T02:28:10;8.67;;;5.77;;
16735;SDS011;17990;49.548;9.730;2023-07-24T02:30:37;6.77;;;4.93;;
16735;SDS011;17990;49.548;9.730;2023-07-24T02:33:05;6.90;;;5.20;;
16735;SDS011;17990;49.548;9.730;2023-07-24T02:35:38;6.57;;;5.17;;
16735;SDS011;17990;49.548;9.730;2023-07-24T02:38:05;8.53;;;5.20;;
16735;SDS011;17990;49.548;9.730;2023-07-24T02:40:33;8.07;;;5.13;;
16735;SDS011;17990;49.548;9.730;2023-07-24T02:43:01;6.57;;;5.20;;
16735;SDS011;17990;49.548;9.730;2023-07-24T02:45:28;7.03;;;5.17;;
16735;SDS011;17990;49.548;9.730;2023-07-24T02:47:54;7.83;;;5.37;;
16735;SDS011;17990;49.548;9.730;2023-07-24T02:50:21;7.30;;;5.00;;
16735;SDS011;17990;49.548;9.730;2023-07-24T02:52:50;7.07;;;5.23;;
16735;SDS011;17990;49.548;9.730;2023-07-24T02:55:16;7.37;;;5.07;;
16735;SDS011;17990;49.548;9.730;2023-07-24T02:57:43;8.03;;;5.57;;
16735;SDS011;17990;49.548;9.730;2023-07-24T03:00:10;7.50;;;5.13;;
16735;SDS011;17990;49.548;9.730;2023-07-24T03:02:38;7.27;;;5.33;;
16735;SDS011;17990;49.548;9.730;2023-07-24T03:05:05;8.27;;;5.17;;
16735;SDS011;17990;49.548;9.730;2023-07-24T03:07:33;7.13;;;5.33;;
16735;SDS011;17990;49.548;9.730;2023-07-24T03:10:02;6.60;;;5.40;;
16735;SDS011;17990;49.548;9.730;2023-07-24T03:12:29;7.03;;;5.27;;
16735;SDS011;17990;49.548;9.730;2023-07-24T03:14:56;8.33;;;5.23;;
16735;SDS011;17990;49.548;9.730;2023-07-24T03:17:23;8.77;;;5.23;;
16735;SDS011;17990;49.548;9.730;2023-07-24T03:19:50;8.73;;;5.40;;
16735;SDS011;17990;49.548;9.730;2023-07-24T03:22:17;6.83;;;5.33;;
16735;SDS011;17990;49.548;9.730;2023-07-24T03:24:43;6.93;;;5.17;;
16735;SDS011;17990;49.548;9.730;2023-07-24T03:27:12;8.07;;;5.30;;
16735;SDS011;17990;49.548;9.730;2023-07-24T03:29:38;7.30;;;5.10;;
16735;SDS011;17990;49.548;9.730;2023-07-24T03:32:06;7.90;;;4.97;;
16735;SDS011;17990;49.548;9.730;2023-07-24T03:34:33;8.13;;;5.20;;
16735;SDS011;17990;49.548;9.730;2023-07-24T03:37:00;8.50;;;5.20;;
16735;SDS011;17990;49.548;9.730;2023-07-24T03:39:27;7.00;;;5.10;;
16735;SDS011;17990;49.548;9.730;2023-07-24T03:45:09;10.57;;;6.27;;
16735;SDS011;17990;49.548;9.730;2023-07-24T03:47:36;12.43;;;6.67;;
16735;SDS011;17990;49.548;9.730;2023-07-24T03:50:03;10.63;;;5.83;;
16735;SDS011;17990;49.548;9.730;2023-07-24T03:52:31;10.30;;;6.40;;
16735;SDS011;17990;49.548;9.730;2023-07-24T03:54:58;10.30;;;5.77;;
16735;SDS011;17990;49.548;9.730;2023-07-24T03:57:25;13.00;;;7.40;;
16735;SDS011;17990;49.548;9.730;2023-07-24T03:59:53;10.40;;;6.57;;
16735;SDS011;17990;49.548;9.730;2023-07-24T04:02:20;12.37;;;7.30;;
16735;SDS011;17990;49.548;9.730;2023-07-24T04:04:48;9.10;;;6.33;;
16735;SDS011;17990;49.548;9.730;2023-07-24T04:07:15;12.33;;;6.83;;
16735;SDS011;17990;49.548;9.730;2023-07-24T04:09:42;10.60;;;6.80;;
16735;SDS011;17990;49.548;9.730;2023-07-24T04:12:09;9.50;;;5.93;;
16735;SDS011;17990;49.548;9.730;2023-07-24T04:14:36;8.07;;;6.23;;
16735;SDS011;17990;49.548;9.730;2023-07-24T04:17:04;9.20;;;6.20;;
16735;SDS011;17990;49.548;9.730;2023-07-24T04:19:32;9.00;;;6.00;;
16735;SDS011;17990;49.548;9.730;2023-07-24T04:21:58;9.90;;;6.17;;
16735;SDS011;17990;49.548;9.730;2023-07-24T04:24:25;9.10;;;6.07;;
16735;SDS011;17990;49.548;9.730;2023-07-24T04:26:52;8.90;;;5.80;;
16735;SDS011;17990;49.548;9.730;2023-07-24T04:29:19;9.33;;;6.30;;
16735;SDS011;17990;49.548;9.730;2023-07-24T04:31:48;9.57;;;6.60;;
16735;SDS011;17990;49.548;9.730;2023-07-24T04:34:16;7.50;;;5.83;;
16735;SDS011;17990;49.548;9.730;2023-07-24T04:36:44;12.87;;;7.37;;
16735;SDS011;17990;49.548;9.730;2023-07-24T04:39:10;12.10;;;6.27;;
16735;SDS011;17990;49.548;9.730;2023-07-24T04:41:37;8.27;;;6.70;;
16735;SDS011;17990;49.548;9.730;2023-07-24T04:44:04;15.83;;;7.00;;
16735;SDS011;17990;49.548;9.730;2023-07-24T04:46:31;9.37;;;6.47;;
16735;SDS011;17990;49.548;9.730;2023-07-24T04:48:58;9.47;;;6.13;;
16735;SDS011;17990;49.548;9.730;2023-07-24T04:51:26;9.53;;;6.33;;
16735;SDS011;17990;49.548;9.730;2023-07-24T04:53:53;8.57;;;6.57;;
16735;SDS011;17990;49.548;9.730;2023-07-24T04:56:20;8.93;;;5.90;;
16735;SDS011;17990;49.548;9.730;2023-07-24T04:58:47;7.80;;;6.00;;
16735;SDS011;17990;49.548;9.730;2023-07-24T05:01:14;10.53;;;6.30;;
16735;SDS011;17990;49.548;9.730;2023-07-24T05:03:41;8.57;;;6.40;;
16735;SDS011;17990;49.548;9.730;2023-07-24T05:06:08;7.80;;;6.13;;
16735;SDS011;17990;49.548;9.730;2023-07-24T05:08:36;11.07;;;6.63;;
16735;SDS011;17990;49.548;9.730;2023-07-24T05:11:03;9.37;;;6.80;;
16735;SDS011;17990;49.548;9.730;2023-07-24T05:13:30;10.40;;;6.53;;
16735;SDS011;17990;49.548;9.730;2023-07-24T05:15:56;8.87;;;6.23;;
16735;SDS011;17990;49.548;9.730;2023-07-24T05:18:23;8.97;;;6.73;;
16735;SDS011;17990;49.548;9.730;2023-07-24T05:20:50;8.07;;;6.77;;
16735;SDS011;17990;49.548;9.730;2023-07-24T05:23:17;7.23;;;5.93;;
16735;SDS011;17990;49.548;9.730;2023-07-24T05:25:45;9.83;;;6.60;;
16735;SDS011;17990;49.548;9.730;2023-07-24T05:28:12;11.60;;;6.57;;
16735;SDS011;17990;49.548;9.730;2023-07-24T05:30:39;9.77;;;6.27;;
16735;SDS011;17990;49.548;9.730;2023-07-24T05:33:06;9.27;;;6.33;;
16735;SDS011;17990;49.548;9.730;2023-07-24T05:35:33;7.85;;;6.25;;
16735;SDS011;17990;49.548;9.730;2023-07-24T05:38:00;8.82;;;6.35;;
16735;SDS011;17990;49.548;9.730;2023-07-24T05:40:27;8.65;;;6.88;;
16735;SDS011;17990;49.548;9.730;2023-07-24T05:42:55;10.93;;;6.55;;
16735;SDS011;17990;49.548;9.730;2023-07-24T05:45:22;8.80;;;6.40;;
16735;SDS011;17990;49.548;9.730;2023-07-24T05:47:49;9.13;;;7.03;;
16735;SDS011;17990;49.548;9.730;2023-07-24T05:50:16;9.85;;;6.95;;
16735;SDS011;17990;49.548;9.730;2023-07-24T05:52:43;9.73;;;6.82;;
16735;SDS011;17990;49.548;9.730;2023-07-24T05:55:10;7.32;;;6.45;;
16735;SDS011;17990;49.548;9.730;2023-07-24T05:57:37;8.65;;;6.47;;
16735;SDS011;17990;49.548;9.730;2023-07-24T06:00:06;8.00;;;6.60;;
16735;SDS011;17990;49.548;9.730;2023-07-24T06:02:34;10.17;;;6.87;;
16735;SDS011;17990;49.548;9.730;2023-07-24T06:05:01;10.45;;;6.75;;
16735;SDS011;17990;49.548;9.730;2023-07-24T06:07:27;10.77;;;7.23;;
16735;SDS011;17990;49.548;9.730;2023-07-24T06:09:54;12.80;;;7.57;;
16735;SDS011;17990;49.548;9.730;2023-07-24T06:12:21;8.70;;;6.03;;
16735;SDS011;17990;49.548;9.730;2023-07-24T06:14:48;8.60;;;6.65;;
16735;SDS011;17990;49.548;9.730;2023-07-24T06:17:16;9.07;;;6.67;;
16735;SDS011;17990;49.548;9.730;2023-07-24T06:19:43;8.63;;;6.70;;
16735;SDS011;17990;49.548;9.730;2023-07-24T06:22:10;11.17;;;6.83;;
16735;SDS011;17990;49.548;9.730;2023-07-24T06:24:37;16.47;;;6.90;;
16735;SDS011;17990;49.548;9.730;2023-07-24T06:27:04;8.40;;;6.43;;
16735;SDS011;17990;49.548;9.730;2023-07-24T06:29:32;10.27;;;6.50;;
16735;SDS011;17990;49.548;9.730;2023-07-24T06:31:59;11.13;;;7.47;;
16735;SDS011;17990;49.548;9.730;2023-07-24T06:34:27;8.50;;;6.73;;
16735;SDS011;17990;49.548;9.730;2023-07-24T06:36:54;10.27;;;7.27;;
16735;SDS011;17990;49.548;9.730;2023-07-24T06:39:21;12.23;;;6.53;;
16735;SDS011;17990;49.548;9.730;2023-07-24T06:41:48;8.53;;;6.60;;
16735;SDS011;17990;49.548;9.730;2023-07-24T06:44:15;9.17;;;7.27;;
16735;SDS011;17990;49.548;9.730;2023-07-24T06:46:42;9.98;;;6.70;;
16735;SDS011;17990;49.548;9.730;2023-07-24T06:49:09;8.77;;;6.63;;
16735;SDS011;17990;49.548;9.730;2023-07-24T06:51:37;8.47;;;6.07;;
16735;SDS011;17990;49.548;9.730;2023-07-24T06:54:04;9.73;;;6.63;;
16735;SDS011;17990;49.548;9.730;2023-07-24T06:56:31;9.05;;;6.47;;
16735;SDS011;17990;49.548;9.730;2023-07-24T06:58:58;9.45;;;6.75;;
16735;SDS011;17990;49.548;9.730;2023-07-24T07:01:25;8.23;;;6.90;;
16735;SDS011;17990;49.548;9.730;2023-07-24T07:03:52;10.23;;;7.00;;
16735;SDS011;17990;49.548;9.730;2023-07-24T07:06:19;11.80;;;7.28;;
16735;SDS011;17990;49.548;9.730;2023-07-24T07:08:47;10.23;;;6.87;;
16735;SDS011;17990;49.548;9.730;2023-07-24T07:11:14;10.52;;;6.40;;
16735;SDS011;17990;49.548;9.730;2023-07-24T07:13:41;9.05;;;6.68;;
16735;SDS011;17990;49.548;9.730;2023-07-24T07:16:08;10.25;;;6.55;;
16735;SDS011;17990;49.548;9.730;2023-07-24T07:18:35;8.43;;;6.60;;
16735;SDS011;17990;49.548;9.730;2023-07-24T07:21:02;10.38;;;7.40;;
16735;SDS011;17990;49.548;9.730;2023-07-24T07:23:29;9.27;;;6.20;;
16735;SDS011;17990;49.548;9.730;2023-07-24T07:25:57;7.88;;;6.90;;
16735;SDS011;17990;49.548;9.730;2023-07-24T07:28:24;8.98;;;6.60;;
16735;SDS011;17990;49.548;9.730;2023-07-24T07:30:51;11.55;;;6.45;;
16735;SDS011;17990;49.548;9.730;2023-07-24T07:33:18;11.15;;;7.68;;
16735;SDS011;17990;49.548;9.730;2023-07-24T07:35:46;8.15;;;6.47;;
16735;SDS011;17990;49.548;9.730;2023-07-24T07:38:13;11.05;;;7.05;;
16735;SDS011;17990;49.548;9.730;2023-07-24T07:40:40;10.93;;;6.53;;
16735;SDS011;17990;49.548;9.730;2023-07-24T07:43:08;8.38;;;6.35;;
16735;SDS011;17990;49.548;9.730;2023-07-24T07:45:35;10.88;;;6.47;;
16735;SDS011;17990;49.548;9.730;2023-07-24T07:48:02;8.50;;;6.70;;
16735;SDS011;17990;49.548;9.730;2023-07-24T07:50:30;8.90;;;6.30;;
16735;SDS011;17990;49.548;9.730;2023-07-24T07:52:57;9.15;;;5.65;;
16735;SDS011;17990;49.548;9.730;2023-07-24T07:55:24;11.82;;;6.72;;
16735;SDS011;17990;49.548;9.730;2023-07-24T07:57:50;7.82;;;6.10;;
16735;SDS011;17990;49.548;9.730;2023-07-24T08:00:19;9.27;;;6.20;;
16735;SDS011;17990;49.548;9.730;2023-07-24T08:02:46;7.80;;;6.85;;
16735;SDS011;17990;49.548;9.730;2023-07-24T08:05:13;8.00;;;6.70;;
16735;SDS011;17990;49.548;9.730;2023-07-24T08:07:40;8.40;;;5.97;;
16735;SDS011;17990;49.548;9.730;2023-07-24T08:10:07;9.32;;;6.38;;
16735;SDS011;17990;49.548;9.730;2023-07-24T08:12:35;6.95;;;5.97;;
16735;SDS011;17990;49.548;9.730;2023-07-24T08:15:02;14.25;;;7.63;;
16735;SDS011;17990;49.548;9.730;2023-07-24T08:17:31;10.48;;;6.38;;
16735;SDS011;17990;49.548;9.730;2023-07-24T08:19:58;10.40;;;6.60;;
16735;SDS011;17990;49.548;9.730;2023-07-24T08:22:25;8.98;;;6.68;;
16735;SDS011;17990;49.548;9.730;2023-07-24T08:24:52;8.90;;;6.40;;
16735;SDS011;17990;49.548;9.730;2023-07-24T08:27:19;9.85;;;6.72;;
16735;SDS011;17990;49.548;9.730;2023-07-24T08:29:46;11.05;;;6.68;;
16735;SDS011;17990;49.548;9.730;2023-07-24T08:32:12;9.63;;;6.18;;
16735;SDS011;17990;49.548;9.730;2023-07-24T08:34:41;9.90;;;6.30;;
16735;SDS011;17990;49.548;9.730;2023-07-24T08:37:07;9.85;;;6.90;;
16735;SDS011;17990;49.548;9.730;2023-07-24T08:39:34;9.15;;;6.88;;
16735;SDS011;17990;49.548;9.730;2023-07-24T08:42:07;8.20;;;6.72;;
16735;SDS011;17990;49.548;9.730;2023-07-24T08:44:35;8.27;;;6.72;;
16735;SDS011;17990;49.548;9.730;2023-07-24T08:47:04;9.52;;;6.88;;
16735;SDS011;17990;49.548;9.730;2023-07-24T08:49:33;8.80;;;6.78;;
16735;SDS011;17990;49.548;9.730;2023-07-24T08:52:02;10.25;;;6.88;;
16735;SDS011;17990;49.548;9.730;2023-07-24T08:54:31;11.27;;;6.57;;
16735;SDS011;17990;49.548;9.730;2023-07-24T08:57:02;7.68;;;6.18;;
16735;SDS011;17990;49.548;9.730;2023-07-24T08:59:30;13.25;;;6.78;;
16735;SDS011;17990;49.548;9.730;2023-07-24T09:01:57;12.38;;;6.95;;
16735;SDS011;17990;49.548;9.730;2023-07-24T09:04:24;12.10;;;7.05;;
16735;SDS011;17990;49.548;9.730;2023-07-24T09:06:51;11.73;;;6.68;;
16735;SDS011;17990;49.548;9.730;2023-07-24T09:09:20;14.43;;;7.22;;
16735;SDS011;17990;49.548;9.730;2023-07-24T09:11:48;12.10;;;7.22;;
16735;SDS011;17990;49.548;9.730;2023-07-24T09:14:20;14.60;;;6.85;;
16735;SDS011;17990;49.548;9.730;2023-07-24T09:16:48;15.63;;;6.97;;
16735;SDS011;17990;49.548;9.730;2023-07-24T09:19:18;10.63;;;6.93;;
16735;SDS011;17990;49.548;9.730;2023-07-24T09:21:45;11.90;;;6.85;;
16735;SDS011;17990;49.548;9.730;2023-07-24T09:24:12;9.85;;;6.63;;
16735;SDS011;17990;49.548;9.730;2023-07-24T09:26:48;12.45;;;7.22;;
16735;SDS011;17990;49.548;9.730;2023-07-24T09:29:16;10.30;;;7.25;;
16735;SDS011;17990;49.548;9.730;2023-07-24T09:31:43;9.13;;;6.78;;
16735;SDS011;17990;49.548;9.730;2023-07-24T09:34:14;10.68;;;7.07;;
16735;SDS011;17990;49.548;9.730;2023-07-24T09:36:42;7.90;;;6.43;;
16735;SDS011;17990;49.548;9.730;2023-07-24T09:39:10;9.27;;;6.68;;
16735;SDS011;17990;49.548;9.730;2023-07-24T09:41:37;7.43;;;6.10;;
16735;SDS011;17990;49.548;9.730;2023-07-24T09:44:06;10.10;;;6.45;;
16735;SDS011;17990;49.548;9.730;2023-07-24T09:46:34;8.98;;;6.28;;
16735;SDS011;17990;49.548;9.730;2023-07-24T09:49:01;10.20;;;6.90;;
16735;SDS011;17990;49.548;9.730;2023-07-24T09:51:28;9.63;;;7.15;;
16735;SDS011;17990;49.548;9.730;2023-07-24T09:53:58;8.88;;;6.72;;
16735;SDS011;17990;49.548;9.730;2023-07-24T09:56:33;12.20;;;6.55;;
16735;SDS011;17990;49.548;9.730;2023-07-24T09:59:02;8.27;;;6.15;;
16735;SDS011;17990;49.548;9.730;2023-07-24T10:01:30;8.50;;;6.70;;
16735;SDS011;17990;49.548;9.730;2023-07-24T10:03:58;12.38;;;6.97;;
16735;SDS011;17990;49.548;9.730;2023-07-24T10:06:26;6.80;;;5.82;;
16735;SDS011;17990;49.548;9.730;2023-07-24T10:08:54;7.60;;;5.80;;
16735;SDS011;17990;49.548;9.730;2023-07-24T10:11:22;8.88;;;6.22;;
16735;SDS011;17990;49.548;9.730;2023-07-24T10:13:51;7.57;;;6.18;;
16735;SDS011;17990;49.548;9.730;2023-07-24T10:16:19;7.50;;;5.72;;
16735;SDS011;17990;49.548;9.730;2023-07-24T10:18:47;9.68;;;5.53;;
16735;SDS011;17990;49.548;9.730;2023-07-24T10:21:14;7.65;;;6.22;;
16735;SDS011;17990;49.548;9.730;2023-07-24T10:23:43;7.50;;;6.07;;
16735;SDS011;17990;49.548;9.730;2023-07-24T10:26:12;6.45;;;5.72;;
16735;SDS011;17990;49.548;9.730;2023-07-24T10:28:41;8.75;;;5.78;;
16735;SDS011;17990;49.548;9.730;2023-07-24T10:31:20;7.90;;;6.13;;
16735;SDS011;17990;49.548;9.730;2023-07-24T10:33:52;7.20;;;6.03;;
16735;SDS011;17990;49.548;9.730;2023-07-24T10:36:20;9.13;;;5.95;;
16735;SDS011;17990;49.548;9.730;2023-07-24T10:38:52;7.65;;;6.30;;
16735;SDS011;17990;49.548;9.730;2023-07-24T10:41:20;8.43;;;6.25;;
16735;SDS011;17990;49.548;9.730;2023-07-24T10:43:48;7.60;;;5.93;;
16735;SDS011;17990;49.548;9.730;2023-07-24T10:46:19;7.85;;;5.85;;
16735;SDS011;17990;49.548;9.730;2023-07-24T10:48:47;9.05;;;6.22;;
16735;SDS011;17990;49.548;9.730;2023-07-24T10:51:17;7.80;;;5.85;;
16735;SDS011;17990;49.548;9.730;2023-07-24T10:53:45;8.35;;;6.35;;
16735;SDS011;17990;49.548;9.730;2023-07-24T10:56:13;8.70;;;5.78;;
16735;SDS011;17990;49.548;9.730;2023-07-24T10:58:41;7.05;;;5.88;;
16735;SDS011;17990;49.548;9.730;2023-07-24T11:01:08;9.68;;;6.47;;
16735;SDS011;17990;49.548;9.730;2023-07-24T11:03:36;8.15;;;5.95;;
16735;SDS011;17990;49.548;9.730;2023-07-24T11:06:04;8.40;;;6.07;;
16735;SDS011;17990;49.548;9.730;2023-07-24T11:08:32;8.07;;;5.93;;
16735;SDS011;17990;49.548;9.730;2023-07-24T11:11:01;7.00;;;5.47;;
16735;SDS011;17990;49.548;9.730;2023-07-24T11:13:29;7.13;;;5.85;;
16735;SDS011;17990;49.548;9.730;2023-07-24T11:15:56;8.55;;;5.88;;
16735;SDS011;17990;49.548;9.730;2023-07-24T11:18:30;8.02;;;6.45;;
16735;SDS011;17990;49.548;9.730;2023-07-24T11:20:57;10.35;;;6.60;;
16735;SDS011;17990;49.548;9.730;2023-07-24T11:23:24;9.10;;;5.90;;
16735;SDS011;17990;49.548;9.730;2023-07-24T11:25:52;9.15;;;6.72;;
16735;SDS011;17990;49.548;9.730;2023-07-24T11:28:20;8.95;;;6.45;;
16735;SDS011;17990;49.548;9.730;2023-07-24T11:30:47;8.02;;;6.07;;
16735;SDS011;17990;49.548;9.730;2023-07-24T11:33:15;8.98;;;6.03;;
16735;SDS011;17990;49.548;9.730;2023-07-24T11:35:42;9.10;;;6.25;;
16735;SDS011;17990;49.548;9.730;2023-07-24T11:38:09;11.23;;;6.97;;
16735;SDS011;17990;49.548;9.730;2023-07-24T11:40:37;7.30;;;5.85;;
16735;SDS011;17990;49.548;9.730;2023-07-24T11:43:14;7.93;;;6.25;;
16735;SDS011;17990;49.548;9.730;2023-07-24T11:45:42;8.57;;;6.07;;
16735;SDS011;17990;49.548;9.730;2023-07-24T11:48:10;9.57;;;6.22;;
16735;SDS011;17990;49.548;9.730;2023-07-24T11:50:41;8.35;;;5.90;;
16735;SDS011;17990;49.548;9.730;2023-07-24T11:53:18;10.02;;;5.88;;
16735;SDS011;17990;49.548;9.730;2023-07-24T11:55:47;8.98;;;5.95;;
16735;SDS011;17990;49.548;9.730;2023-07-24T11:58:16;8.23;;;5.88;;
16735;SDS011;17990;49.548;9.730;2023-07-24T12:00:45;7.15;;;5.55;;
16735;SDS011;17990;49.548;9.730;2023-07-24T12:03:12;10.38;;;6.85;;
16735;SDS011;17990;49.548;9.730;2023-07-24T12:05:40;10.23;;;7.22;;
16735;SDS011;17990;49.548;9.730;2023-07-24T12:08:08;10.10;;;6.65;;
16735;SDS011;17990;49.548;9.730;2023-07-24T12:10:36;8.32;;;6.80;;
16735;SDS011;17990;49.548;9.730;2023-07-24T12:13:04;8.85;;;6.07;;
16735;SDS011;17990;49.548;9.730;2023-07-24T12:15:33;9.23;;;6.80;;
16735;SDS011;17990;49.548;9.730;2023-07-24T12:18:00;9.80;;;6.97;;
16735;SDS011;17990;49.548;9.730;2023-07-24T12:20:28;8.88;;;6.80;;
16735;SDS011;17990;49.548;9.730;2023-07-24T12:22:55;8.20;;;6.45;;
16735;SDS011;17990;49.548;9.730;2023-07-24T12:25:23;8.82;;;6.60;;
16735;SDS011;17990;49.548;9.730;2023-07-24T12:27:50;8.27;;;6.15;;
16735;SDS011;17990;49.548;9.730;2023-07-24T12:30:17;7.20;;;6.15;;
16735;SDS011;17990;49.548;9.730;2023-07-24T12:32:47;8.80;;;5.90;;
16735;SDS011;17990;49.548;9.730;2023-07-24T12:35:14;8.63;;;5.95;;
16735;SDS011;17990;49.548;9.730;2023-07-24T12:37:45;7.70;;;6.47;;
16735;SDS011;17990;49.548;9.730;2023-07-24T12:40:12;8.98;;;5.55;;
16735;SDS011;17990;49.548;9.730;2023-07-24T12:42:39;8.30;;;5.63;;
16735;SDS011;17990;49.548;9.730;2023-07-24T12:45:06;7.95;;;5.55;;
16735;SDS011;17990;49.548;9.730;2023-07-24T12:47:34;8.15;;;5.47;;
16735;SDS011;17990;49.548;9.730;2023-07-24T12:50:02;8.30;;;5.68;;
16735;SDS011;17990;49.548;9.730;2023-07-24T12:52:30;6.18;;;5.40;;
16735;SDS011;17990;49.548;9.730;2023-07-24T12:54:57;6.93;;;5.60;;
16735;SDS011;17990;49.548;9.730;2023-07-24T12:57:23;8.05;;;5.22;;
16735;SDS011;17990;49.548;9.730;2023-07-24T12:59:51;8.57;;;5.53;;
16735;SDS011;17990;49.548;9.730;2023-07-24T13:02:18;6.22;;;5.50;;
16735;SDS011;17990;49.548;9.730;2023-07-24T13:04:45;6.30;;;5.45;;
16735;SDS011;17990;49.548;9.730;2023-07-24T13:07:13;6.18;;;5.53;;
16735;SDS011;17990;49.548;9.730;2023-07-24T13:09:40;6.07;;;5.40;;
16735;SDS011;17990;49.548;9.730;2023-07-24T13:12:08;8.23;;;5.32;;
16735;SDS011;17990;49.548;9.730;2023-07-24T13:14:35;7.00;;;5.10;;
16735;SDS011;17990;49.548;9.730;2023-07-24T13:17:03;6.97;;;5.53;;
16735;SDS011;17990;49.548;9.730;2023-07-24T13:19:30;7.68;;;5.85;;
16735;SDS011;17990;49.548;9.730;2023-07-24T13:21:57;6.80;;;6.03;;
16735;SDS011;17990;49.548;9.730;2023-07-24T13:24:26;5.85;;;5.05;;
16735;SDS011;17990;49.548;9.730;2023-07-24T13:26:56;7.40;;;5.25;;
16735;SDS011;17990;49.548;9.730;2023-07-24T13:29:24;6.97;;;5.53;;
16735;SDS011;17990;49.548;9.730;2023-07-24T13:31:51;9.05;;;5.60;;
16735;SDS011;17990;49.548;9.730;2023-07-24T13:34:18;7.97;;;5.28;;
16735;SDS011;17990;49.548;9.730;2023-07-24T13:36:45;8.65;;;5.95;;
16735;SDS011;17990;49.548;9.730;2023-07-24T13:39:12;6.18;;;5.40;;
16735;SDS011;17990;49.548;9.730;2023-07-24T13:41:40;6.03;;;5.43;;
16735;SDS011;17990;49.548;9.730;2023-07-24T13:44:07;6.15;;;5.55;;
16735;SDS011;17990;49.548;9.730;2023-07-24T13:46:35;6.75;;;5.38;;
16735;SDS011;17990;49.548;9.730;2023-07-24T13:49:02;7.18;;;5.57;;
16735;SDS011;17990;49.548;9.730;2023-07-24T13:51:29;6.93;;;5.38;;
16735;SDS011;17990;49.548;9.730;2023-07-24T13:53:56;6.50;;;5.07;;
16735;SDS011;17990;49.548;9.730;2023-07-24T13:56:24;8.18;;;5.72;;
16735;SDS011;17990;49.548;9.730;2023-07-24T13:58:54;5.93;;;5.32;;
16735;SDS011;17990;49.548;9.730;2023-07-24T14:01:21;8.13;;;5.32;;
16735;SDS011;17990;49.548;9.730;2023-07-24T14:03:48;8.90;;;5.55;;
16735;SDS011;17990;49.548;9.730;2023-07-24T14:06:15;6.75;;;5.82;;
16735;SDS011;17990;49.548;9.730;2023-07-24T14:08:41;6.40;;;5.38;;
16735;SDS011;17990;49.548;9.730;2023-07-24T14:11:08;6.72;;;5.28;;
16735;SDS011;17990;49.548;9.730;2023-07-24T14:13:35;8.43;;;5.40;;
16735;SDS011;17990;49.548;9.730;2023-07-24T14:16:04;9.38;;;5.40;;
16735;SDS011;17990;49.548;9.730;2023-07-24T14:18:31;8.52;;;5.60;;
16735;SDS011;17990;49.548;9.730;2023-07-24T14:20:58;7.50;;;4.90;;
16735;SDS011;17990;49.548;9.730;2023-07-24T14:23:25;6.78;;;5.25;;
16735;SDS011;17990;49.548;9.730;2023-07-24T14:25:51;7.82;;;5.97;;
16735;SDS011;17990;49.548;9.730;2023-07-24T14:28:18;7.10;;;5.45;;
16735;SDS011;17990;49.548;9.730;2023-07-24T14:30:45;6.35;;;5.13;;
16735;SDS011;17990;49.548;9.730;2023-07-24T14:33:14;8.50;;;5.57;;
16735;SDS011;17990;49.548;9.730;2023-07-24T14:35:41;6.57;;;5.75;;
16735;SDS011;17990;49.548;9.730;2023-07-24T14:38:08;5.85;;;5.15;;
16735;SDS011;17990;49.548;9.730;2023-07-24T14:40:35;7.00;;;5.20;;
16735;SDS011;17990;49.548;9.730;2023-07-24T14:43:02;6.97;;;5.20;;
16735;SDS011;17990;49.548;9.730;2023-07-24T14:45:29;7.15;;;5.38;;
16735;SDS011;17990;49.548;9.730;2023-07-24T14:47:56;8.50;;;5.80;;
16735;SDS011;17990;49.548;9.730;2023-07-24T14:50:24;5.75;;;5.15;;
16735;SDS011;17990;49.548;9.730;2023-07-24T14:52:51;5.85;;;5.15;;